Alle Angaben ohne Gewähr!
Bitte informieren Sie sich zusätzlich über offizielle Wetter-Stellen wie z.B. http://www.flug-wetter.at.

L O X Z

L O W K


LOWK 251420Z 25004KT 220V300 9999 -SHRA FEW050 FEW060CB SCT080 BKN120 21/08
Q1006 TEMPO SHRA
LOWK 251350Z VRB02KT 9999 FEW050 FEW060CB SCT100 22/07 Q1006 TEMPO SHRA
LOWK 251320Z 31004KT 260V340 9999 FEW050 FEW060CB SCT280 22/07 Q1006 TEMPO SHRA
LOWK 251250Z 05006KT 330V100 9999 FEW050 FEW060CB 23/10 Q1006 NOSIG

TAF AMD LOWK 251320Z 2513/2612 09005KT 9999 FEW060 TX22/2514Z TN11/2603Z
  TEMPO 2513/2517 28010KT SHRA SCT050 FEW060CB BKN300
  PROB40
  TEMPO 2602/2607 FEW005 BKN009

L O W G


LOWG 251420Z 13006KT 9999 FEW065 22/11 Q1005 NOSIG
LOWG 251350Z VRB04KT 9999 SCT075 20/11 Q1006 RERA NOSIG
LOWG 251320Z 05005KT 9999 BKN075 22/09 Q1005 TEMPO SHRA
LOWG 251250Z 07005KT 020V140 9999 SHRA SCT070 22/10 Q1006 BECMG NSW

TAF AMD LOWG 251243Z 2512/2612 31005KT 9999 FEW060 SCT120 TX24/2514Z TN12/2603Z
  TEMPO 2512/2514 SHRA FEW060TCU BKN070
  TEMPO 2610/2612 33015KT 4000 TSRA FEW050CB BKN070